Time;durP1;ratioP1;P1;durP2;ratioP2;P2;SDS_P1;SDS_P2;PMS_P1;PMS_P2;Temp;Humidity;BMP_temperature;BMP_pressure;BME280_temperature;BME280_humidity;BME280_pressure;Samples;Min_cycle;Max_cycle;Signal;HPM_P1;HPM_P2
2023/03/24 00:01:04;;;;;;;13.00;3.88;;;;;;;10.99;100.00;99699.44;5057752;28;20090;-76
2023/03/24 00:03:30;;;;;;;10.55;3.65;;;;;;;11.00;100.00;99687.72;5059202;28;20473;-76
2023/03/24 00:06:00;;;;;;;12.80;3.88;;;;;;;11.00;100.00;99682.34;5041820;28;20076;-76
2023/03/24 00:08:29;;;;;;;12.80;3.85;;;;;;;11.01;100.00;99681.31;5047163;28;20040;-76
2023/03/24 00:10:59;;;;;;;9.77;3.33;;;;;;;11.01;100.00;99673.25;5051196;28;20049;-76
2023/03/24 00:13:24;;;;;;;12.02;4.15;;;;;;;11.04;100.00;99673.00;5049840;28;20066;-76
2023/03/24 00:15:50;;;;;;;13.00;3.63;;;;;;;11.05;100.00;99679.22;5050257;28;20042;-76
2023/03/24 00:18:15;;;;;;;8.57;3.25;;;;;;;11.05;100.00;99680.06;5040182;28;20376;-76
2023/03/24 00:20:41;;;;;;;10.15;3.50;;;;;;;11.06;100.00;99673.69;5044310;28;20076;-76
2023/03/24 00:23:06;;;;;;;12.48;3.50;;;;;;;11.08;100.00;99671.69;5052759;28;20064;-76
2023/03/24 00:25:34;;;;;;;15.50;4.03;;;;;;;11.10;100.00;99663.47;5060527;28;20540;-76
2023/03/24 00:28:01;;;;;;;13.57;3.85;;;;;;;11.11;100.00;99666.06;5045250;28;20041;-76
2023/03/24 00:30:27;;;;;;;11.45;3.28;;;;;;;11.13;100.00;99665.91;5055936;28;20077;-76
2023/03/24 00:32:52;;;;;;;10.25;3.47;;;;;;;11.16;100.00;99671.00;5048441;28;20037;-77
2023/03/24 00:35:18;;;;;;;14.77;3.80;;;;;;;11.18;100.00;99663.59;5057525;28;20029;-77
2023/03/24 00:37:44;;;;;;;10.10;3.30;;;;;;;11.20;100.00;99656.25;5063754;28;20595;-76
2023/03/24 00:40:13;;;;;;;14.80;3.78;;;;;;;11.23;100.00;99653.28;5056965;28;20029;-76
2023/03/24 00:42:44;;;;;;;13.73;3.75;;;;;;;11.27;100.00;99643.06;5062493;28;20707;-77
2023/03/24 00:45:11;;;;;;;8.45;3.05;;;;;;;11.28;100.00;99631.31;5053971;28;20116;-77
2023/03/24 00:47:37;;;;;;;11.23;3.33;;;;;;;11.31;100.00;99631.03;5053533;28;20479;-76
2023/03/24 00:50:08;;;;;;;7.45;2.97;;;;;;;11.34;100.00;99633.41;5063900;28;20116;-77
2023/03/24 00:52:34;;;;;;;8.07;2.95;;;;;;;11.37;100.00;99633.13;5059934;28;20078;-76
2023/03/24 00:55:02;;;;;;;13.40;3.20;;;;;;;11.39;100.00;99627.59;5059773;28;20033;-76
2023/03/24 00:57:28;;;;;;;8.43;3.00;;;;;;;11.41;100.00;99625.63;5057449;28;20358;-76
2023/03/24 00:59:56;;;;;;;12.70;3.75;;;;;;;11.41;100.00;99617.53;5060796;28;20078;-77
2023/03/24 01:02:23;;;;;;;9.38;3.00;;;;;;;11.41;100.00;99620.22;5047190;28;20029;-76
2023/03/24 01:04:57;;;;;;;6.88;2.55;;;;;;;11.42;100.00;99613.84;5061331;28;20439;-77
2023/03/24 01:07:24;;;;;;;9.60;3.25;;;;;;;11.43;100.00;99615.53;5052286;28;20021;-76
2023/03/24 01:09:58;;;;;;;12.35;2.95;;;;;;;11.43;100.00;99612.84;5054673;28;20028;-76
2023/03/24 01:12:28;;;;;;;11.80;3.40;;;;;;;11.44;100.00;99612.69;5057431;28;20032;-76
2023/03/24 01:14:56;;;;;;;16.80;4.20;;;;;;;11.43;100.00;99608.31;5048245;28;20028;-76
2023/03/24 01:17:24;;;;;;;9.32;2.97;;;;;;;11.43;100.00;99613.69;5059232;28;20029;-76
2023/03/24 01:19:49;;;;;;;8.52;2.90;;;;;;;11.43;100.00;99596.69;5060117;28;20086;-76
2023/03/24 01:22:15;;;;;;;7.90;3.13;;;;;;;11.41;100.00;99599.53;5053015;28;20604;-76
2023/03/24 01:24:42;;;;;;;9.30;3.50;;;;;;;11.40;100.00;99597.84;5063946;28;20120;-76
2023/03/24 01:27:07;;;;;;;12.80;3.47;;;;;;;11.39;100.00;99589.91;5047853;28;20417;-76
2023/03/24 01:29:33;;;;;;;12.80;3.78;;;;;;;11.37;100.00;99592.75;5054270;28;20119;-76
2023/03/24 01:31:58;;;;;;;10.77;3.63;;;;;;;11.36;100.00;99593.75;5057804;28;20093;-76
2023/03/24 01:34:23;;;;;;;11.68;3.55;;;;;;;11.35;100.00;99594.75;5047160;28;20099;-76
2023/03/24 01:36:49;;;;;;;7.88;3.35;;;;;;;11.34;100.00;99590.38;5055262;28;20384;-77
2023/03/24 01:39:14;;;;;;;8.60;3.05;;;;;;;11.33;100.00;99575.22;5061553;28;20048;-77
2023/03/24 01:41:40;;;;;;;10.20;3.33;;;;;;;11.31;100.00;99577.22;5055100;28;20522;-77
2023/03/24 01:44:26;;;;;;;14.05;3.50;;;;;;;11.32;100.00;99577.06;5054207;28;20052;-77
2023/03/24 01:46:51;;;;;;;12.90;3.42;;;;;;;11.32;100.00;99573.56;5057476;28;20013;-77
2023/03/24 01:49:17;;;;;;;14.15;3.70;;;;;;;11.31;100.00;99567.31;5059931;28;20079;-77
2023/03/24 01:51:46;;;;;;;10.43;3.38;;;;;;;11.33;100.00;99575.22;5055498;28;20028;-77
2023/03/24 01:54:35;;;;;;;7.90;3.05;;;;;;;11.33;100.00;99572.53;5054128;28;20032;-77
2023/03/24 01:57:07;;;;;;;9.73;3.17;;;;;;;11.31;100.00;99566.47;5053498;28;20047;-77
2023/03/24 01:59:36;;;;;;;11.40;2.95;;;;;;;11.29;100.00;99557.69;5055631;28;20139;-77
2023/03/24 02:02:04;;;;;;;9.65;3.53;;;;;;;11.30;100.00;99559.38;5042436;28;20417;-76
2023/03/24 02:04:37;;;;;;;14.48;3.45;;;;;;;11.29;100.00;99555.00;5037894;28;20113;-77
2023/03/24 02:07:11;;;;;;;14.32;3.88;;;;;;;11.28;100.00;99554.16;5046700;28;20417;-76
2023/03/24 02:09:36;;;;;;;12.25;3.95;;;;;;;11.29;100.00;99549.59;5057224;28;20138;-76
2023/03/24 02:12:02;;;;;;;9.60;3.30;;;;;;;11.29;100.00;99547.78;5052597;28;20056;-77
2023/03/24 02:14:28;;;;;;;9.32;3.15;;;;;;;11.28;100.00;99554.16;5049272;28;20025;-76
2023/03/24 02:16:59;;;;;;;11.85;3.88;;;;;;;11.29;100.00;99557.69;5043253;28;20025;-76
2023/03/24 02:22:24;;;;;;;12.15;4.10;;;;;;;11.28;100.00;99556.00;5070479;28;20209;-77
2023/03/24 02:25:01;;;;;;;10.15;3.47;;;;;;;11.28;100.00;99556.00;5056520;28;20411;-76
2023/03/24 02:27:40;;;;;;;13.55;3.83;;;;;;;11.26;100.00;99552.59;5061878;28;20106;-77
2023/03/24 02:30:24;;;;;;;10.52;3.40;;;;;;;11.25;100.00;99551.75;5050945;28;20041;-77
2023/03/24 02:33:18;;;;;;;11.10;3.60;;;;;;;11.26;100.00;99552.59;5063969;28;20036;-77
2023/03/24 02:35:58;;;;;;;11.55;3.75;;;;;;;11.26;100.00;99555.28;5037591;28;20029;-77
2023/03/24 02:39:08;;;;;;;11.25;3.63;;;;;;;11.25;100.00;99550.94;5056031;28;20056;-77
2023/03/24 02:41:52;;;;;;;10.98;3.53;;;;;;;11.24;100.00;99550.06;5038568;28;20349;-77
2023/03/24 02:44:42;;;;;;;9.38;3.58;;;;;;;11.24;100.00;99559.97;5073289;28;20037;-77
2023/03/24 02:47:14;;;;;;;10.05;3.47;;;;;;;11.24;100.00;99559.97;5058076;28;20119;-77
2023/03/24 02:49:49;;;;;;;13.32;3.90;;;;;;;11.23;100.00;99571.72;5049548;28;20017;-77
2023/03/24 02:52:28;;;;;;;9.80;3.58;;;;;;;11.25;100.00;99591.28;5048692;28;20021;-77
2023/03/24 02:55:00;;;;;;;10.85;3.92;;;;;;;11.25;100.00;99581.34;5045718;28;20454;-77
2023/03/24 02:57:39;;;;;;;12.15;3.85;;;;;;;11.26;100.00;99580.38;5050606;28;20033;-76
2023/03/24 03:00:13;;;;;;;10.05;3.65;;;;;;;11.26;100.00;99599.19;5055515;28;20075;-76
2023/03/24 03:02:44;;;;;;;10.02;4.00;;;;;;;11.28;100.00;99612.50;5040519;28;20461;-76
2023/03/24 03:05:26;;;;;;;12.20;3.78;;;;;;;11.27;100.00;99629.63;5035362;28;20051;-76
2023/03/24 03:07:55;;;;;;;12.23;3.80;;;;;;;11.25;100.00;99624.38;5049710;28;20112;-77
2023/03/24 03:10:25;;;;;;;11.00;3.45;;;;;;;11.22;100.00;99634.59;5053662;28;20362;-77
2023/03/24 03:12:55;;;;;;;9.07;3.15;;;;;;;11.19;100.00;99633.88;5060037;28;20044;-76
2023/03/24 03:15:28;;;;;;;8.25;3.08;;;;;;;11.17;100.00;99632.31;5052678;28;20029;-77
2023/03/24 03:18:01;;;;;;;10.13;3.10;;;;;;;11.14;100.00;99649.63;5056820;28;20031;-76
2023/03/24 03:20:33;;;;;;;7.25;2.90;;;;;;;11.14;100.00;99659.50;5052334;28;20132;-76
2023/03/24 03:23:04;;;;;;;9.20;2.88;;;;;;;11.06;100.00;99662.94;5051669;28;20376;-76
2023/03/24 03:25:37;;;;;;;6.13;2.47;;;;;;;11.00;100.00;99671.59;5045730;28;20394;-76
2023/03/24 03:28:05;;;;;;;5.18;1.70;;;;;;;10.91;100.00;99661.69;5059699;28;20037;-76
2023/03/24 03:30:41;;;;;;;9.45;2.40;;;;;;;10.83;100.00;99665.09;5049452;28;20029;-77
2023/03/24 03:33:17;;;;;;;6.30;2.47;;;;;;;10.77;100.00;99689.84;5049785;28;20051;-76
2023/03/24 03:35:50;;;;;;;7.07;2.00;;;;;;;10.70;100.00;99708.38;5025499;28;20249;-76
2023/03/24 03:38:34;;;;;;;6.75;2.00;;;;;;;10.66;100.00;99728.47;5045460;28;20036;-76
2023/03/24 03:41:03;;;;;;;7.13;1.80;;;;;;;10.58;100.00;99725.63;5036073;28;20025;-76
2023/03/24 03:43:30;;;;;;;9.40;2.33;;;;;;;10.54;100.00;99714.34;5026642;28;20440;-76
2023/03/24 03:45:57;;;;;;;4.43;1.77;;;;;;;10.53;100.00;99727.88;5042011;28;20025;-76
2023/03/24 03:48:25;;;;;;;6.43;2.03;;;;;;;10.49;100.00;99751.50;5037751;28;20030;-76
2023/03/24 03:50:51;;;;;;;11.85;3.45;;;;;;;10.46;99.21;99739.19;5039928;28;20090;-76
2023/03/24 03:53:20;;;;;;;14.20;4.15;;;;;;;10.40;98.72;99755.03;5045886;28;20519;-76
2023/03/24 03:55:46;;;;;;;18.42;4.60;;;;;;;10.32;96.62;99752.97;5030744;28;20021;-76
2023/03/24 03:58:11;;;;;;;14.10;4.80;;;;;;;10.25;96.97;99752.69;5035808;28;20469;-76
2023/03/24 04:00:38;;;;;;;15.57;3.85;;;;;;;10.17;95.53;99755.22;5028091;28;20033;-76
2023/03/24 04:03:25;;;;;;;13.27;3.80;;;;;;;10.11;97.13;99756.59;5029329;28;20445;-76
2023/03/24 04:06:32;;;;;;;12.35;3.85;;;;;;;10.07;98.25;99752.53;5043611;28;20033;-76
2023/03/24 04:09:32;;;;;;;12.48;3.25;;;;;;;10.00;97.71;99772.84;5033290;28;20067;-76
2023/03/24 04:12:17;;;;;;;10.75;2.78;;;;;;;9.94;97.84;99778.72;5043848;28;20115;-76
2023/03/24 04:14:57;;;;;;;14.20;3.10;;;;;;;9.91;99.01;99779.84;5029861;28;20044;-76
2023/03/24 04:17:31;;;;;;;11.80;3.45;;;;;;;9.88;100.00;99787.31;5041766;28;20025;-76
2023/03/24 04:20:13;;;;;;;11.82;2.90;;;;;;;9.87;100.00;99807.06;5033475;28;20025;-76
2023/03/24 04:22:56;;;;;;;8.57;3.00;;;;;;;9.85;100.00;99814.41;5039443;28;20033;-76
2023/03/24 04:25:43;;;;;;;12.93;2.67;;;;;;;9.82;100.00;99810.16;5030157;28;20472;-76
2023/03/24 04:28:25;;;;;;;18.08;2.95;;;;;;;9.78;99.75;99808.72;5027379;28;20112;-76
2023/03/24 04:31:17;;;;;;;13.13;3.35;;;;;;;9.73;99.68;99798.41;5030737;28;20018;-76
2023/03/24 04:33:51;;;;;;;15.18;3.55;;;;;;;9.70;99.78;99812.09;5026465;28;20025;-76
2023/03/24 04:36:26;;;;;;;16.52;2.92;;;;;;;9.66;100.00;99824.06;5030594;28;20029;-76
2023/03/24 04:38:53;;;;;;;11.88;3.28;;;;;;;9.61;100.00;99827.13;5040409;28;20020;-76
2023/03/24 04:41:21;;;;;;;10.05;2.58;;;;;;;9.58;99.81;99837.28;5035724;28;20020;-76
2023/03/24 04:43:47;;;;;;;17.63;3.20;;;;;;;9.53;100.00;99834.13;5041641;28;20068;-76
2023/03/24 04:46:16;;;;;;;11.15;3.13;;;;;;;9.51;100.00;99838.78;5037299;28;20056;-76
2023/03/24 04:48:43;;;;;;;7.78;2.35;;;;;;;9.45;100.00;99846.38;5038291;28;20032;-76
2023/03/24 04:51:10;;;;;;;10.32;2.92;;;;;;;9.41;100.00;99844.94;5033712;28;20116;-76
2023/03/24 04:53:35;;;;;;;12.52;2.92;;;;;;;9.38;100.00;99836.28;5045159;28;20025;-76
2023/03/24 04:56:26;;;;;;;12.10;3.30;;;;;;;9.35;100.00;99845.44;5040071;28;20041;-76
2023/03/24 04:58:51;;;;;;;14.57;3.65;;;;;;;9.29;100.00;99845.13;5029738;28;20369;-76
2023/03/24 05:01:16;;;;;;;15.32;3.92;;;;;;;9.24;100.00;99835.63;5026956;28;20037;-76
2023/03/24 05:03:44;;;;;;;15.35;4.53;;;;;;;9.21;100.00;99854.66;5033921;28;20122;-76
2023/03/24 05:06:11;;;;;;;11.38;3.40;;;;;;;9.20;100.00;99849.44;5037641;28;20032;-76
2023/03/24 05:08:37;;;;;;;15.65;3.88;;;;;;;9.18;100.00;99854.06;5040728;28;20117;-76
2023/03/24 05:11:02;;;;;;;15.75;3.78;;;;;;;9.16;100.00;99854.19;5028506;28;20467;-76
2023/03/24 05:13:27;;;;;;;16.33;4.30;;;;;;;9.15;100.00;99859.66;5050203;28;20021;-76
2023/03/24 05:15:53;;;;;;;14.57;4.03;;;;;;;9.13;100.00;99864.31;5029745;28;20380;-76
2023/03/24 05:18:19;;;;;;;14.10;4.35;;;;;;;9.12;100.00;99876.00;5041646;28;20426;-76
2023/03/24 05:20:44;;;;;;;15.25;4.00;;;;;;;9.11;100.00;99875.19;5031686;28;20084;-76
2023/03/24 05:23:10;;;;;;;19.10;3.83;;;;;;;9.09;100.00;99875.31;5034360;28;20064;-76
2023/03/24 05:25:35;;;;;;;12.80;3.53;;;;;;;9.08;100.00;99886.16;5030824;28;20484;-76
2023/03/24 05:28:00;;;;;;;16.45;3.38;;;;;;;9.10;100.00;99887.69;5040895;28;20428;-76
2023/03/24 05:30:26;;;;;;;12.35;2.97;;;;;;;9.12;100.00;99884.06;5029682;28;20029;-76
2023/03/24 05:32:51;;;;;;;14.60;3.22;;;;;;;9.13;100.00;99894.66;5031217;28;20526;-76
2023/03/24 05:35:17;;;;;;;18.63;3.58;;;;;;;9.12;100.00;99887.56;5031128;28;20064;-76
2023/03/24 05:37:42;;;;;;;17.33;3.92;;;;;;;9.13;100.00;99896.50;5040566;28;20041;-76
2023/03/24 05:40:08;;;;;;;12.48;3.05;;;;;;;9.14;100.00;99891.00;5038208;28;20029;-76
2023/03/24 05:42:33;;;;;;;14.07;3.60;;;;;;;9.15;100.00;99897.19;5039482;28;20087;-76
2023/03/24 05:44:59;;;;;;;17.98;3.10;;;;;;;9.16;100.00;99897.06;5033387;28;20033;-76
2023/03/24 05:47:24;;;;;;;15.68;3.45;;;;;;;9.18;100.00;99902.31;5044770;28;20032;-76
2023/03/24 05:49:50;;;;;;;14.32;3.58;;;;;;;9.18;100.00;99905.00;5037442;28;20035;-76
2023/03/24 05:52:16;;;;;;;21.88;4.45;;;;;;;9.20;99.86;99921.81;5038648;28;20033;-76
2023/03/24 05:54:42;;;;;;;17.25;3.53;;;;;;;9.20;99.61;99917.28;5041854;28;20028;-76
2023/03/24 05:57:12;;;;;;;18.27;4.30;;;;;;;9.19;100.00;99915.59;5028311;28;20099;-76
2023/03/24 05:59:37;;;;;;;19.92;3.97;;;;;;;9.15;99.53;99919.53;5033782;28;20025;-76
2023/03/24 06:02:03;;;;;;;16.45;3.97;;;;;;;9.15;98.63;99922.19;5025245;28;20037;-76
2023/03/24 06:04:29;;;;;;;16.25;4.25;;;;;;;9.15;99.05;99921.31;5037305;28;20462;-76
2023/03/24 06:06:57;;;;;;;16.70;3.63;;;;;;;9.16;98.90;99920.34;5040860;28;20056;-76
2023/03/24 06:09:31;;;;;;;13.15;3.25;;;;;;;9.16;98.98;99915.00;5045622;28;20166;-76
2023/03/24 06:11:58;;;;;;;15.27;3.22;;;;;;;9.15;98.54;99916.84;5033751;28;20029;-76
2023/03/24 06:14:23;;;;;;;21.33;4.65;;;;;;;9.17;97.71;99911.34;5034432;28;20473;-76
2023/03/24 06:16:51;;;;;;;16.30;3.33;;;;;;;9.17;98.28;99919.41;5032115;28;20028;-76
2023/03/24 06:19:21;;;;;;;15.15;3.30;;;;;;;9.17;98.00;99922.91;5044041;28;20025;-77
2023/03/24 06:21:49;;;;;;;;;;;;;;;9.24;99.17;99934.00;5040295;28;20052;-76
2023/03/24 06:24:15;;;;;;;15.90;2.78;;;;;;;9.17;99.02;99936.31;5037690;28;20063;-77
2023/03/24 06:26:48;;;;;;;15.13;3.50;;;;;;;9.18;97.82;99939.84;5046651;28;20025;-76
2023/03/24 06:29:16;;;;;;;17.77;3.78;;;;;;;9.22;98.55;99946.66;5026665;28;20040;-76
2023/03/24 06:31:42;;;;;;;11.45;3.30;;;;;;;9.22;97.27;99943.97;5031173;28;20474;-76
2023/03/24 06:34:08;;;;;;;17.25;3.65;;;;;;;9.24;97.20;99944.72;5049089;28;20427;-77
2023/03/24 06:36:36;;;;;;;19.48;3.50;;;;;;;9.24;97.48;99956.28;5027180;28;20029;-76
2023/03/24 06:39:01;;;;;;;15.40;3.30;;;;;;;9.27;97.76;99963.22;5037197;28;20032;-76
2023/03/24 06:41:27;;;;;;;12.63;3.22;;;;;;;9.29;97.42;99963.09;5040988;28;20477;-76
2023/03/24 06:43:52;;;;;;;20.08;4.18;;;;;;;9.32;97.39;99962.84;5040182;28;20433;-76
2023/03/24 06:46:17;;;;;;;22.25;3.95;;;;;;;9.36;97.58;99959.78;5023251;28;20018;-76
2023/03/24 06:48:43;;;;;;;14.90;3.25;;;;;;;9.39;97.57;99967.56;5018857;28;20473;-76
2023/03/24 06:51:08;;;;;;;15.90;2.97;;;;;;;9.42;97.01;99964.63;5040532;28;20392;-76
2023/03/24 06:53:33;;;;;;;18.02;3.80;;;;;;;9.44;96.82;99957.34;5043824;28;20037;-76
2023/03/24 06:55:59;;;;;;;12.73;3.30;;;;;;;9.47;97.33;99966.09;5032837;28;20187;-76
2023/03/24 06:58:24;;;;;;;18.02;3.58;;;;;;;9.49;97.31;99965.00;5034319;28;20496;-76
2023/03/24 07:00:50;;;;;;;15.70;3.35;;;;;;;9.54;98.44;99964.59;5029335;28;20337;-76
2023/03/24 07:03:15;;;;;;;15.50;3.60;;;;;;;9.54;97.08;99962.75;5022683;28;20028;-76
2023/03/24 07:05:44;;;;;;;15.32;3.97;;;;;;;9.57;96.71;99961.66;5026978;28;20104;-77
2023/03/24 07:08:10;;;;;;;22.13;3.50;;;;;;;9.58;96.68;99955.31;5032878;28;20455;-76
2023/03/24 07:10:38;;;;;;;17.60;3.40;;;;;;;9.59;96.82;99962.38;5029889;28;20021;-76
2023/03/24 07:13:04;;;;;;;17.58;3.75;;;;;;;9.61;96.57;99968.47;5044667;28;20037;-76
2023/03/24 07:15:29;;;;;;;15.73;3.70;;;;;;;9.64;96.23;99962.84;5044317;28;20552;-76
2023/03/24 07:17:55;;;;;;;16.92;3.25;;;;;;;9.64;97.40;99968.22;5037866;28;20121;-76
2023/03/24 07:20:20;;;;;;;12.30;2.92;;;;;;;9.68;96.48;99971.47;5042676;28;20080;-76
2023/03/24 07:22:46;;;;;;;19.88;3.88;;;;;;;9.69;96.47;99979.41;5030892;28;20029;-76
2023/03/24 07:25:13;;;;;;;12.20;3.05;;;;;;;9.72;96.61;99978.31;5038017;28;20032;-76
2023/03/24 07:27:39;;;;;;;21.05;3.72;;;;;;;9.74;96.15;99977.19;5023121;28;20052;-76
2023/03/24 07:30:06;;;;;;;20.20;3.58;;;;;;;9.77;97.09;99985.00;5018246;28;20057;-76
2023/03/24 07:32:33;;;;;;;17.00;3.65;;;;;;;9.82;96.70;99997.19;5029609;28;20108;-76
2023/03/24 07:35:01;;;;;;;20.20;4.15;;;;;;;9.85;97.18;99996.91;5025601;28;20052;-76
2023/03/24 07:37:26;;;;;;;15.93;3.28;;;;;;;9.89;96.31;100001.06;5029644;28;20153;-76
2023/03/24 07:39:52;;;;;;;21.38;3.22;;;;;;;9.89;94.72;99999.22;5032195;28;20117;-76
2023/03/24 07:42:17;;;;;;;15.65;3.35;;;;;;;9.90;95.54;100008.13;5021391;28;20484;-76
2023/03/24 07:44:43;;;;;;;20.27;3.75;;;;;;;9.95;95.89;100013.94;5033654;28;20030;-76
2023/03/24 07:47:08;;;;;;;13.75;3.05;;;;;;;9.97;96.44;100011.97;5020317;28;20466;-76
2023/03/24 07:49:34;;;;;;;13.77;2.85;;;;;;;10.01;96.50;100008.06;5040445;28;20069;-76
2023/03/24 07:52:00;;;;;;;18.08;4.07;;;;;;;10.04;96.19;100013.16;5043219;28;20021;-76
2023/03/24 07:54:26;;;;;;;17.88;3.22;;;;;;;10.09;96.12;100016.31;5043796;28;20025;-76
2023/03/24 07:56:51;;;;;;;16.65;3.50;;;;;;;10.14;97.35;100011.41;5040809;28;20048;-76
2023/03/24 07:59:16;;;;;;;19.45;3.90;;;;;;;10.21;96.06;100019.78;5040739;28;20457;-76
2023/03/24 08:01:42;;;;;;;18.55;3.80;;;;;;;10.28;95.04;100022.81;5046656;28;20060;-76
2023/03/24 08:04:12;;;;;;;19.17;4.10;;;;;;;10.34;95.48;100026.81;5036676;28;20040;-76
2023/03/24 08:06:38;;;;;;;15.95;3.45;;;;;;;10.42;95.22;100037.78;5041903;28;20021;-76
2023/03/24 08:09:03;;;;;;;15.38;3.13;;;;;;;10.45;93.71;100033.00;5039839;28;20037;-76
2023/03/24 08:11:29;;;;;;;19.90;3.92;;;;;;;10.49;92.90;100038.94;5041059;28;20037;-76
2023/03/24 08:13:54;;;;;;;16.65;4.07;;;;;;;10.53;93.15;100040.41;5041557;28;20487;-76
2023/03/24 08:16:20;;;;;;;14.98;3.35;;;;;;;10.55;93.47;100033.03;5042676;28;20021;-76
2023/03/24 08:18:47;;;;;;;17.38;3.55;;;;;;;10.58;93.83;100040.00;5042471;28;20495;-76
2023/03/24 08:21:13;;;;;;;20.33;3.83;;;;;;;10.59;92.43;100037.19;5039281;28;20195;-76
2023/03/24 08:23:38;;;;;;;17.33;3.53;;;;;;;10.63;91.86;100044.00;5041145;28;20029;-76
2023/03/24 08:26:04;;;;;;;15.25;3.28;;;;;;;10.70;90.44;100036.22;5042290;28;20435;-76
2023/03/24 08:28:29;;;;;;;18.98;4.03;;;;;;;10.81;92.48;100038.84;5044112;28;20025;-76
2023/03/24 08:30:54;;;;;;;20.15;4.20;;;;;;;10.93;91.75;100046.81;5042297;28;20038;-77
2023/03/24 08:33:20;;;;;;;16.15;3.47;;;;;;;11.03;89.75;100042.34;5041374;28;20033;-76
2023/03/24 08:35:45;;;;;;;20.25;3.75;;;;;;;11.13;90.29;100053.16;5039097;28;20029;-76
2023/03/24 08:38:11;;;;;;;18.90;3.65;;;;;;;11.23;90.55;100050.47;5042028;28;20029;-77
2023/03/24 08:40:39;;;;;;;18.95;3.47;;;;;;;11.31;88.25;100061.41;5038999;28;20052;-77
2023/03/24 08:43:07;;;;;;;25.00;4.35;;;;;;;11.33;87.55;100054.91;5038853;28;20440;-77
2023/03/24 08:45:33;;;;;;;18.25;3.70;;;;;;;11.36;87.04;100054.63;5044626;28;20029;-77
2023/03/24 08:48:02;;;;;;;17.65;3.60;;;;;;;11.40;85.83;100065.97;5039253;28;20056;-77
2023/03/24 08:50:33;;;;;;;17.13;3.38;;;;;;;11.40;86.45;100062.44;5041714;28;20021;-77
2023/03/24 08:52:58;;;;;;;17.13;3.67;;;;;;;11.39;86.42;100066.97;5043662;28;20021;-77
2023/03/24 08:55:25;;;;;;;12.75;3.28;;;;;;;11.42;87.24;100074.75;5039349;28;20075;-77
2023/03/24 08:57:51;;;;;;;21.63;4.65;;;;;;;11.40;85.96;100075.88;5043515;28;20025;-77
2023/03/24 09:00:18;;;;;;;12.07;3.13;;;;;;;11.33;85.19;100079.13;5040545;28;20128;-77
2023/03/24 09:02:46;;;;;;;15.00;4.22;;;;;;;11.27;85.62;100070.72;5040882;28;20176;-77
2023/03/24 09:05:12;;;;;;;14.98;3.42;;;;;;;11.22;85.92;100076.53;5043211;28;20366;-77
2023/03/24 09:07:38;;;;;;;16.00;3.08;;;;;;;11.21;84.61;100077.50;5041178;28;20115;-77
2023/03/24 09:10:06;;;;;;;19.88;4.03;;;;;;;11.18;85.30;100075.94;5038787;28;20041;-76
2023/03/24 09:12:32;;;;;;;17.33;4.00;;;;;;;11.19;85.36;100069.56;5038072;28;20036;-76
2023/03/24 09:14:57;;;;;;;15.90;3.75;;;;;;;11.26;86.84;100077.97;5040746;28;20017;-77
2023/03/24 09:17:22;;;;;;;14.55;4.00;;;;;;;11.33;85.34;100076.44;5041670;28;20024;-77
2023/03/24 09:19:47;;;;;;;15.32;3.38;;;;;;;11.41;86.27;100078.44;5042654;28;20024;-76
2023/03/24 09:22:13;;;;;;;12.55;3.00;;;;;;;11.43;85.08;100089.91;5039989;28;20488;-77
2023/03/24 09:24:38;;;;;;;17.00;3.47;;;;;;;11.44;84.35;100098.84;5039959;28;20025;-76
2023/03/24 09:27:04;;;;;;;17.05;3.50;;;;;;;11.39;85.17;100091.19;5042008;28;20103;-76
2023/03/24 09:29:29;;;;;;;18.23;3.85;;;;;;;11.35;86.42;100090.59;5038079;28;20044;-77
2023/03/24 09:31:56;;;;;;;22.63;3.63;;;;;;;11.31;85.68;100104.44;5038512;28;20053;-76
2023/03/24 09:34:22;;;;;;;17.73;4.07;;;;;;;11.31;86.67;100094.53;5041370;28;20037;-76
2023/03/24 09:36:49;;;;;;;21.35;3.70;;;;;;;11.37;88.02;100098.53;5042882;28;20029;-76
2023/03/24 09:39:14;;;;;;;12.80;3.28;;;;;;;11.44;86.20;100114.97;5041589;28;20116;-76
2023/03/24 09:41:44;;;;;;;11.80;3.40;;;;;;;11.49;87.62;100118.97;5037875;28;20116;-76
2023/03/24 09:44:39;;;;;;;15.30;3.72;;;;;;;11.50;86.48;100106.34;5039602;28;20108;-77
2023/03/24 09:47:20;;;;;;;16.30;3.92;;;;;;;11.51;87.26;100114.28;5042664;28;20533;-76
2023/03/24 09:49:47;;;;;;;20.98;4.25;;;;;;;11.54;86.30;100115.88;5030849;28;20021;-77
2023/03/24 09:52:17;;;;;;;13.43;3.35;;;;;;;11.53;86.05;100112.31;5039361;28;20100;-76
2023/03/24 09:55:03;;;;;;;15.98;4.10;;;;;;;11.54;86.62;100105.09;5032570;28;20594;-77
2023/03/24 09:57:36;;;;;;;14.90;3.92;;;;;;;11.56;88.13;100102.28;5018572;28;20053;-76
2023/03/24 10:00:16;;;;;;;16.50;3.85;;;;;;;11.59;85.73;100099.31;5028295;28;20040;-77
2023/03/24 10:02:42;;;;;;;15.20;3.67;;;;;;;11.59;85.62;100108.22;5022371;28;20052;-76
2023/03/24 10:05:23;;;;;;;16.35;3.80;;;;;;;11.64;85.82;100110.50;5041156;28;20032;-76
2023/03/24 10:08:11;;;;;;;16.48;3.53;;;;;;;11.67;85.26;100116.47;5040459;28;20064;-76
2023/03/24 10:11:03;;;;;;;16.00;3.70;;;;;;;11.71;84.34;100111.66;5037922;28;20079;-76
2023/03/24 10:13:51;;;;;;;13.60;3.15;;;;;;;11.75;82.97;100112.25;5035539;28;20021;-76
2023/03/24 10:16:52;;;;;;;10.63;3.10;;;;;;;11.79;82.38;100109.13;5032726;28;20414;-76
2023/03/24 10:19:23;;;;;;;16.75;3.50;;;;;;;11.79;80.04;100114.50;5012058;28;20041;-76
2023/03/24 10:22:29;;;;;;;14.35;3.45;;;;;;;11.79;82.26;100122.59;5040789;28;20033;-77
2023/03/24 10:25:00;;;;;;;18.08;3.45;;;;;;;11.76;80.93;100120.16;4967978;28;20325;-76
2023/03/24 10:27:35;;;;;;;15.23;3.25;;;;;;;11.77;81.88;100116.50;4986375;28;20137;-76
2023/03/24 10:30:18;;;;;;;12.50;2.95;;;;;;;11.82;81.14;100111.53;4961056;28;20030;-76
2023/03/24 10:32:44;;;;;;;14.45;3.28;;;;;;;11.95;79.26;100118.53;4965483;28;20042;-77
2023/03/24 10:35:20;;;;;;;15.20;2.85;;;;;;;12.04;78.98;100117.69;4978029;28;20561;-76
2023/03/24 10:37:45;;;;;;;11.38;2.80;;;;;;;12.10;77.85;100117.13;4979904;28;20066;-76
2023/03/24 10:40:15;;;;;;;13.05;3.20;;;;;;;12.13;77.34;100118.69;4965408;28;20185;-77
2023/03/24 10:42:40;;;;;;;;;;;;;;;12.16;77.44;100115.72;4965815;28;20033;-76
2023/03/24 10:45:12;;;;;;;15.70;3.80;;;;;;;12.19;77.87;100110.88;4983016;28;20000;-76
2023/03/24 10:47:39;;;;;;;17.13;3.30;;;;;;;12.24;78.56;100114.03;4985851;28;20477;-76
2023/03/24 10:50:06;;;;;;;16.10;3.38;;;;;;;12.28;75.90;100102.97;4970870;28;20157;-77
2023/03/24 10:52:40;;;;;;;13.07;2.90;;;;;;;12.30;77.35;100119.81;4973146;28;20042;-77
2023/03/24 10:55:06;;;;;;;18.63;4.20;;;;;;;12.31;76.19;100100.81;4975388;28;20042;-77
2023/03/24 10:57:33;;;;;;;16.95;4.35;;;;;;;12.30;76.20;100103.66;4975359;28;20027;-76
2023/03/24 11:00:21;;;;;;;13.63;3.88;;;;;;;12.39;76.53;100119.00;5029501;28;20107;-76
2023/03/24 11:02:56;;;;;;;15.90;3.40;;;;;;;12.49;77.02;100102.78;5042386;28;20470;-76
2023/03/24 11:05:29;;;;;;;11.18;3.33;;;;;;;12.53;76.66;100107.78;5039359;28;20554;-76
2023/03/24 11:07:59;;;;;;;10.00;3.38;;;;;;;12.56;76.69;100107.50;5033200;28;20036;-76
2023/03/24 11:10:26;;;;;;;13.68;3.28;;;;;;;12.58;75.17;100104.66;5040595;28;21495;-76
2023/03/24 11:12:56;;;;;;;17.17;3.88;;;;;;;12.59;74.33;100106.34;5043492;28;20377;-76
2023/03/24 11:15:29;;;;;;;16.63;4.15;;;;;;;12.61;75.96;100100.78;5041849;28;20025;-76
2023/03/24 11:17:57;;;;;;;12.15;3.10;;;;;;;12.64;74.72;100114.00;5016922;28;20728;-76
2023/03/24 11:20:32;;;;;;;13.27;3.03;;;;;;;12.69;74.31;100106.31;5040040;28;20529;-76
2023/03/24 11:23:01;;;;;;;17.65;3.83;;;;;;;12.74;75.02;100112.16;5043470;28;20052;-76
2023/03/24 11:25:30;;;;;;;15.38;3.83;;;;;;;12.77;72.56;100111.84;5043957;28;20464;-76
2023/03/24 11:28:00;;;;;;;11.20;3.28;;;;;;;12.79;71.55;100099.06;5044838;28;20027;-76
2023/03/24 11:30:47;;;;;;;13.93;3.10;;;;;;;12.84;72.97;100098.63;5042072;28;20033;-76
2023/03/24 11:33:24;;;;;;;10.10;2.90;;;;;;;12.78;71.68;100105.44;5043004;28;20060;-77
2023/03/24 11:35:50;;;;;;;14.75;3.10;;;;;;;12.70;72.08;100105.34;5043347;28;20025;-76
2023/03/24 11:38:27;;;;;;;16.92;3.50;;;;;;;12.63;72.08;100107.75;5042048;28;20427;-77